sensor_id;sensor_type;location;lat;lon;timestamp;P1;durP1;ratioP1;P2;durP2;ratioP2
7761;SDS011;3925;48.636;9.516;2022-07-10T00:00:13;6.00;;;5.13;;
7761;SDS011;3925;48.636;9.516;2022-07-10T00:02:42;4.77;;;4.33;;
7761;SDS011;3925;48.636;9.516;2022-07-10T00:05:10;5.40;;;4.73;;
7761;SDS011;3925;48.636;9.516;2022-07-10T00:07:37;5.50;;;5.20;;
7761;SDS011;3925;48.636;9.516;2022-07-10T00:10:05;6.73;;;4.87;;
7761;SDS011;3925;48.636;9.516;2022-07-10T00:12:33;4.87;;;4.57;;
7761;SDS011;3925;48.636;9.516;2022-07-10T00:15:00;6.60;;;6.00;;
7761;SDS011;3925;48.636;9.516;2022-07-10T00:17:27;4.80;;;4.47;;
7761;SDS011;3925;48.636;9.516;2022-07-10T00:19:54;5.57;;;5.07;;
7761;SDS011;3925;48.636;9.516;2022-07-10T00:22:21;5.90;;;5.13;;
7761;SDS011;3925;48.636;9.516;2022-07-10T00:24:48;5.90;;;5.50;;
7761;SDS011;3925;48.636;9.516;2022-07-10T00:27:16;6.77;;;6.27;;
7761;SDS011;3925;48.636;9.516;2022-07-10T00:29:45;5.83;;;5.30;;
7761;SDS011;3925;48.636;9.516;2022-07-10T00:32:12;5.50;;;5.10;;
7761;SDS011;3925;48.636;9.516;2022-07-10T00:34:39;5.77;;;5.27;;
7761;SDS011;3925;48.636;9.516;2022-07-10T00:37:06;5.77;;;5.37;;
7761;SDS011;3925;48.636;9.516;2022-07-10T00:39:32;5.97;;;5.57;;
7761;SDS011;3925;48.636;9.516;2022-07-10T00:42:05;5.10;;;4.80;;
7761;SDS011;3925;48.636;9.516;2022-07-10T00:44:33;5.50;;;5.10;;
7761;SDS011;3925;48.636;9.516;2022-07-10T00:47:02;4.53;;;4.23;;
7761;SDS011;3925;48.636;9.516;2022-07-10T00:49:30;4.50;;;4.20;;
7761;SDS011;3925;48.636;9.516;2022-07-10T00:51:57;5.33;;;4.83;;
7761;SDS011;3925;48.636;9.516;2022-07-10T00:54:28;4.93;;;4.63;;
7761;SDS011;3925;48.636;9.516;2022-07-10T00:56:56;5.60;;;5.20;;
7761;SDS011;3925;48.636;9.516;2022-07-10T00:59:24;5.77;;;5.37;;
7761;SDS011;3925;48.636;9.516;2022-07-10T01:01:52;4.53;;;4.23;;
7761;SDS011;3925;48.636;9.516;2022-07-10T01:04:21;5.80;;;5.30;;
7761;SDS011;3925;48.636;9.516;2022-07-10T01:06:48;4.83;;;4.43;;
7761;SDS011;3925;48.636;9.516;2022-07-10T01:09:15;5.13;;;4.73;;
7761;SDS011;3925;48.636;9.516;2022-07-10T01:11:42;5.30;;;4.90;;
7761;SDS011;3925;48.636;9.516;2022-07-10T01:14:10;5.00;;;4.60;;
7761;SDS011;3925;48.636;9.516;2022-07-10T01:16:37;5.07;;;4.77;;
7761;SDS011;3925;48.636;9.516;2022-07-10T01:19:04;5.17;;;4.77;;
7761;SDS011;3925;48.636;9.516;2022-07-10T01:21:34;5.57;;;5.00;;
7761;SDS011;3925;48.636;9.516;2022-07-10T01:24:04;6.23;;;4.83;;
7761;SDS011;3925;48.636;9.516;2022-07-10T01:26:32;5.93;;;5.27;;
7761;SDS011;3925;48.636;9.516;2022-07-10T01:29:00;6.17;;;5.57;;
7761;SDS011;3925;48.636;9.516;2022-07-10T01:31:30;4.80;;;4.40;;
7761;SDS011;3925;48.636;9.516;2022-07-10T01:33:58;5.57;;;5.23;;
7761;SDS011;3925;48.636;9.516;2022-07-10T01:36:27;5.37;;;4.97;;
7761;SDS011;3925;48.636;9.516;2022-07-10T01:38:57;5.70;;;5.20;;
7761;SDS011;3925;48.636;9.516;2022-07-10T01:41:25;6.00;;;5.50;;
7761;SDS011;3925;48.636;9.516;2022-07-10T01:43:53;5.20;;;4.80;;
7761;SDS011;3925;48.636;9.516;2022-07-10T01:46:20;5.80;;;5.40;;
7761;SDS011;3925;48.636;9.516;2022-07-10T01:48:47;5.70;;;5.20;;
7761;SDS011;3925;48.636;9.516;2022-07-10T01:51:14;6.20;;;5.70;;
7761;SDS011;3925;48.636;9.516;2022-07-10T01:53:41;4.63;;;4.33;;
7761;SDS011;3925;48.636;9.516;2022-07-10T01:56:10;6.30;;;5.17;;
7761;SDS011;3925;48.636;9.516;2022-07-10T01:58:38;5.63;;;5.23;;
7761;SDS011;3925;48.636;9.516;2022-07-10T02:01:05;5.93;;;5.43;;
7761;SDS011;3925;48.636;9.516;2022-07-10T02:03:33;5.97;;;5.47;;
7761;SDS011;3925;48.636;9.516;2022-07-10T02:06:18;5.40;;;5.00;;
7761;SDS011;3925;48.636;9.516;2022-07-10T02:08:45;5.60;;;5.23;;
7761;SDS011;3925;48.636;9.516;2022-07-10T02:11:14;5.63;;;4.93;;
7761;SDS011;3925;48.636;9.516;2022-07-10T02:13:41;5.97;;;5.27;;
7761;SDS011;3925;48.636;9.516;2022-07-10T02:16:08;5.53;;;5.03;;
7761;SDS011;3925;48.636;9.516;2022-07-10T02:18:35;6.40;;;5.80;;
7761;SDS011;3925;48.636;9.516;2022-07-10T02:21:03;5.73;;;5.23;;
7761;SDS011;3925;48.636;9.516;2022-07-10T02:23:30;8.63;;;4.93;;
7761;SDS011;3925;48.636;9.516;2022-07-10T02:25:57;7.70;;;5.77;;
7761;SDS011;3925;48.636;9.516;2022-07-10T02:28:25;5.53;;;5.20;;
7761;SDS011;3925;48.636;9.516;2022-07-10T02:30:52;6.17;;;5.67;;
7761;SDS011;3925;48.636;9.516;2022-07-10T02:33:20;5.43;;;4.93;;
7761;SDS011;3925;48.636;9.516;2022-07-10T02:35:46;5.17;;;4.77;;
7761;SDS011;3925;48.636;9.516;2022-07-10T02:38:13;5.43;;;4.93;;
7761;SDS011;3925;48.636;9.516;2022-07-10T02:40:41;6.00;;;5.43;;
7761;SDS011;3925;48.636;9.516;2022-07-10T02:43:08;5.53;;;5.07;;
7761;SDS011;3925;48.636;9.516;2022-07-10T02:45:36;5.10;;;4.70;;
7761;SDS011;3925;48.636;9.516;2022-07-10T02:48:04;5.97;;;5.57;;
7761;SDS011;3925;48.636;9.516;2022-07-10T02:50:31;5.20;;;4.90;;
7761;SDS011;3925;48.636;9.516;2022-07-10T02:52:58;6.60;;;6.00;;
7761;SDS011;3925;48.636;9.516;2022-07-10T02:55:24;6.80;;;5.50;;
7761;SDS011;3925;48.636;9.516;2022-07-10T02:57:51;6.10;;;5.40;;
7761;SDS011;3925;48.636;9.516;2022-07-10T03:00:18;6.10;;;5.60;;
7761;SDS011;3925;48.636;9.516;2022-07-10T03:02:47;5.73;;;5.23;;
7761;SDS011;3925;48.636;9.516;2022-07-10T03:05:14;5.80;;;5.40;;
7761;SDS011;3925;48.636;9.516;2022-07-10T03:07:41;6.83;;;6.07;;
7761;SDS011;3925;48.636;9.516;2022-07-10T03:10:08;5.90;;;5.40;;
7761;SDS011;3925;48.636;9.516;2022-07-10T03:12:35;6.83;;;6.23;;
7761;SDS011;3925;48.636;9.516;2022-07-10T03:15:03;6.33;;;5.90;;
7761;SDS011;3925;48.636;9.516;2022-07-10T03:17:31;6.40;;;5.90;;
7761;SDS011;3925;48.636;9.516;2022-07-10T03:20:00;7.87;;;7.30;;
7761;SDS011;3925;48.636;9.516;2022-07-10T03:22:26;6.40;;;5.80;;
7761;SDS011;3925;48.636;9.516;2022-07-10T03:24:55;7.40;;;6.70;;
7761;SDS011;3925;48.636;9.516;2022-07-10T03:27:22;6.17;;;5.67;;
7761;SDS011;3925;48.636;9.516;2022-07-10T03:29:50;6.90;;;6.43;;
7761;SDS011;3925;48.636;9.516;2022-07-10T03:32:17;7.37;;;6.80;;
7761;SDS011;3925;48.636;9.516;2022-07-10T03:34:43;6.63;;;6.03;;
7761;SDS011;3925;48.636;9.516;2022-07-10T03:37:12;6.90;;;6.30;;
7761;SDS011;3925;48.636;9.516;2022-07-10T03:39:39;5.13;;;4.83;;
7761;SDS011;3925;48.636;9.516;2022-07-10T03:42:06;7.43;;;6.40;;
7761;SDS011;3925;48.636;9.516;2022-07-10T03:44:33;6.80;;;6.30;;
7761;SDS011;3925;48.636;9.516;2022-07-10T03:47:00;6.10;;;5.60;;
7761;SDS011;3925;48.636;9.516;2022-07-10T03:49:27;6.40;;;5.90;;
7761;SDS011;3925;48.636;9.516;2022-07-10T03:51:54;6.77;;;6.23;;
7761;SDS011;3925;48.636;9.516;2022-07-10T03:54:22;6.13;;;5.50;;
7761;SDS011;3925;48.636;9.516;2022-07-10T03:56:49;6.70;;;6.20;;
7761;SDS011;3925;48.636;9.516;2022-07-10T03:59:33;6.80;;;6.30;;
7761;SDS011;3925;48.636;9.516;2022-07-10T04:02:00;6.33;;;5.83;;
7761;SDS011;3925;48.636;9.516;2022-07-10T04:04:27;7.10;;;6.50;;
7761;SDS011;3925;48.636;9.516;2022-07-10T04:06:54;5.77;;;5.27;;
7761;SDS011;3925;48.636;9.516;2022-07-10T04:09:22;6.13;;;5.63;;
7761;SDS011;3925;48.636;9.516;2022-07-10T04:11:49;6.10;;;5.60;;
7761;SDS011;3925;48.636;9.516;2022-07-10T04:14:16;7.07;;;6.37;;
7761;SDS011;3925;48.636;9.516;2022-07-10T04:16:43;6.27;;;5.83;;
7761;SDS011;3925;48.636;9.516;2022-07-10T04:19:10;6.07;;;5.60;;
7761;SDS011;3925;48.636;9.516;2022-07-10T04:21:37;7.23;;;5.60;;
7761;SDS011;3925;48.636;9.516;2022-07-10T04:24:04;5.43;;;5.03;;
7761;SDS011;3925;48.636;9.516;2022-07-10T04:26:33;6.63;;;6.03;;
7761;SDS011;3925;48.636;9.516;2022-07-10T04:29:00;5.83;;;5.37;;
7761;SDS011;3925;48.636;9.516;2022-07-10T04:31:27;6.20;;;5.70;;
7761;SDS011;3925;48.636;9.516;2022-07-10T04:33:54;5.80;;;5.40;;
7761;SDS011;3925;48.636;9.516;2022-07-10T04:36:22;5.40;;;5.00;;
7761;SDS011;3925;48.636;9.516;2022-07-10T04:38:49;6.13;;;5.63;;
7761;SDS011;3925;48.636;9.516;2022-07-10T04:41:16;5.97;;;5.57;;
7761;SDS011;3925;48.636;9.516;2022-07-10T04:43:45;6.63;;;6.00;;
7761;SDS011;3925;48.636;9.516;2022-07-10T04:46:12;5.57;;;5.00;;
7761;SDS011;3925;48.636;9.516;2022-07-10T04:48:39;5.43;;;5.03;;
7761;SDS011;3925;48.636;9.516;2022-07-10T04:51:05;6.13;;;5.63;;
7761;SDS011;3925;48.636;9.516;2022-07-10T04:53:33;5.43;;;5.03;;
7761;SDS011;3925;48.636;9.516;2022-07-10T04:56:00;5.43;;;4.93;;
7761;SDS011;3925;48.636;9.516;2022-07-10T04:58:28;5.00;;;4.60;;
7761;SDS011;3925;48.636;9.516;2022-07-10T05:00:56;4.33;;;4.03;;
7761;SDS011;3925;48.636;9.516;2022-07-10T05:03:23;4.87;;;4.43;;
7761;SDS011;3925;48.636;9.516;2022-07-10T05:05:50;5.30;;;4.90;;
7761;SDS011;3925;48.636;9.516;2022-07-10T05:08:17;5.43;;;5.03;;
7761;SDS011;3925;48.636;9.516;2022-07-10T05:10:44;5.57;;;4.67;;
7761;SDS011;3925;48.636;9.516;2022-07-10T05:13:11;5.97;;;5.47;;
7761;SDS011;3925;48.636;9.516;2022-07-10T05:15:38;5.03;;;4.63;;
7761;SDS011;3925;48.636;9.516;2022-07-10T05:18:06;7.23;;;4.37;;
7761;SDS011;3925;48.636;9.516;2022-07-10T05:20:34;4.67;;;4.27;;
7761;SDS011;3925;48.636;9.516;2022-07-10T05:23:03;4.33;;;4.03;;
7761;SDS011;3925;48.636;9.516;2022-07-10T05:25:29;5.10;;;4.70;;
7761;SDS011;3925;48.636;9.516;2022-07-10T05:27:57;4.90;;;4.17;;
7761;SDS011;3925;48.636;9.516;2022-07-10T05:30:24;5.10;;;3.70;;
7761;SDS011;3925;48.636;9.516;2022-07-10T05:32:51;3.77;;;3.47;;
7761;SDS011;3925;48.636;9.516;2022-07-10T05:35:19;3.50;;;3.20;;
7761;SDS011;3925;48.636;9.516;2022-07-10T05:37:46;3.83;;;3.43;;
7761;SDS011;3925;48.636;9.516;2022-07-10T05:40:14;2.93;;;2.70;;
7761;SDS011;3925;48.636;9.516;2022-07-10T05:42:41;3.03;;;2.80;;
7761;SDS011;3925;48.636;9.516;2022-07-10T05:45:09;3.23;;;2.93;;
7761;SDS011;3925;48.636;9.516;2022-07-10T05:47:36;2.50;;;2.20;;
7761;SDS011;3925;48.636;9.516;2022-07-10T05:50:04;2.53;;;2.30;;
7761;SDS011;3925;48.636;9.516;2022-07-10T05:52:33;3.03;;;2.83;;
7761;SDS011;3925;48.636;9.516;2022-07-10T05:55:00;3.87;;;2.80;;
7761;SDS011;3925;48.636;9.516;2022-07-10T05:57:29;3.07;;;2.87;;
7761;SDS011;3925;48.636;9.516;2022-07-10T05:59:56;3.07;;;2.87;;
7761;SDS011;3925;48.636;9.516;2022-07-10T06:02:23;2.73;;;2.40;;
7761;SDS011;3925;48.636;9.516;2022-07-10T06:04:50;4.07;;;2.93;;
7761;SDS011;3925;48.636;9.516;2022-07-10T06:07:17;3.50;;;2.60;;
7761;SDS011;3925;48.636;9.516;2022-07-10T06:09:45;2.20;;;2.00;;
7761;SDS011;3925;48.636;9.516;2022-07-10T06:12:12;3.40;;;2.70;;
7761;SDS011;3925;48.636;9.516;2022-07-10T06:14:40;2.70;;;2.50;;
7761;SDS011;3925;48.636;9.516;2022-07-10T06:17:07;3.00;;;2.80;;
7761;SDS011;3925;48.636;9.516;2022-07-10T06:19:34;2.67;;;2.47;;
7761;SDS011;3925;48.636;9.516;2022-07-10T06:22:01;2.90;;;2.50;;
7761;SDS011;3925;48.636;9.516;2022-07-10T06:24:47;3.73;;;2.50;;
7761;SDS011;3925;48.636;9.516;2022-07-10T06:27:14;2.60;;;2.33;;
7761;SDS011;3925;48.636;9.516;2022-07-10T06:29:41;2.33;;;1.90;;
7761;SDS011;3925;48.636;9.516;2022-07-10T06:32:08;5.37;;;1.77;;
7761;SDS011;3925;48.636;9.516;2022-07-10T06:34:35;2.10;;;1.90;;
7761;SDS011;3925;48.636;9.516;2022-07-10T06:37:02;1.77;;;1.67;;
7761;SDS011;3925;48.636;9.516;2022-07-10T06:39:31;1.97;;;1.77;;
7761;SDS011;3925;48.636;9.516;2022-07-10T06:42:01;2.90;;;1.70;;
7761;SDS011;3925;48.636;9.516;2022-07-10T06:44:29;4.50;;;1.37;;
7761;SDS011;3925;48.636;9.516;2022-07-10T06:46:56;2.37;;;1.50;;
7761;SDS011;3925;48.636;9.516;2022-07-10T06:49:41;2.17;;;1.63;;
7761;SDS011;3925;48.636;9.516;2022-07-10T06:52:09;1.80;;;1.40;;
7761;SDS011;3925;48.636;9.516;2022-07-10T06:54:37;2.23;;;1.80;;
7761;SDS011;3925;48.636;9.516;2022-07-10T06:57:06;3.07;;;2.03;;
7761;SDS011;3925;48.636;9.516;2022-07-10T06:59:33;2.20;;;1.80;;
7761;SDS011;3925;48.636;9.516;2022-07-10T07:02:01;5.60;;;2.70;;
7761;SDS011;3925;48.636;9.516;2022-07-10T07:04:28;2.97;;;2.60;;
7761;SDS011;3925;48.636;9.516;2022-07-10T07:06:55;4.03;;;2.50;;
7761;SDS011;3925;48.636;9.516;2022-07-10T07:09:22;3.40;;;2.77;;
7761;SDS011;3925;48.636;9.516;2022-07-10T07:11:49;2.83;;;2.50;;
7761;SDS011;3925;48.636;9.516;2022-07-10T07:14:17;2.80;;;2.60;;
7761;SDS011;3925;48.636;9.516;2022-07-10T07:16:44;2.20;;;2.00;;
7761;SDS011;3925;48.636;9.516;2022-07-10T07:19:22;3.07;;;2.30;;
7761;SDS011;3925;48.636;9.516;2022-07-10T07:21:55;2.00;;;1.90;;
7761;SDS011;3925;48.636;9.516;2022-07-10T07:24:40;2.40;;;2.20;;
7761;SDS011;3925;48.636;9.516;2022-07-10T07:27:08;3.13;;;2.53;;
7761;SDS011;3925;48.636;9.516;2022-07-10T07:29:36;2.13;;;1.90;;
7761;SDS011;3925;48.636;9.516;2022-07-10T07:32:04;1.70;;;1.60;;
7761;SDS011;3925;48.636;9.516;2022-07-10T07:34:31;2.30;;;2.10;;
7761;SDS011;3925;48.636;9.516;2022-07-10T07:36:58;3.47;;;1.90;;
7761;SDS011;3925;48.636;9.516;2022-07-10T07:39:25;1.87;;;1.70;;
7761;SDS011;3925;48.636;9.516;2022-07-10T07:41:52;2.20;;;1.80;;
7761;SDS011;3925;48.636;9.516;2022-07-10T07:44:19;4.13;;;2.37;;
7761;SDS011;3925;48.636;9.516;2022-07-10T07:46:49;2.53;;;1.90;;
7761;SDS011;3925;48.636;9.516;2022-07-10T07:49:15;3.30;;;2.27;;
7761;SDS011;3925;48.636;9.516;2022-07-10T07:51:42;3.87;;;1.90;;
7761;SDS011;3925;48.636;9.516;2022-07-10T07:54:09;3.90;;;2.17;;
7761;SDS011;3925;48.636;9.516;2022-07-10T07:56:36;4.03;;;2.00;;
7761;SDS011;3925;48.636;9.516;2022-07-10T07:59:03;1.90;;;1.57;;
7761;SDS011;3925;48.636;9.516;2022-07-10T08:01:30;2.37;;;1.97;;
7761;SDS011;3925;48.636;9.516;2022-07-10T08:03:59;1.30;;;1.20;;
7761;SDS011;3925;48.636;9.516;2022-07-10T08:06:26;4.73;;;1.90;;
7761;SDS011;3925;48.636;9.516;2022-07-10T08:08:53;1.83;;;1.60;;
7761;SDS011;3925;48.636;9.516;2022-07-10T08:11:20;4.40;;;1.93;;
7761;SDS011;3925;48.636;9.516;2022-07-10T08:13:47;5.13;;;1.90;;
7761;SDS011;3925;48.636;9.516;2022-07-10T08:16:14;2.47;;;1.70;;
7761;SDS011;3925;48.636;9.516;2022-07-10T08:18:41;2.87;;;1.90;;
7761;SDS011;3925;48.636;9.516;2022-07-10T08:21:10;2.57;;;1.83;;
7761;SDS011;3925;48.636;9.516;2022-07-10T08:23:37;3.23;;;1.63;;
7761;SDS011;3925;48.636;9.516;2022-07-10T08:26:04;3.50;;;1.83;;
7761;SDS011;3925;48.636;9.516;2022-07-10T08:28:31;3.30;;;1.53;;
7761;SDS011;3925;48.636;9.516;2022-07-10T08:30:57;2.37;;;1.93;;
7761;SDS011;3925;48.636;9.516;2022-07-10T08:33:24;1.87;;;1.67;;
7761;SDS011;3925;48.636;9.516;2022-07-10T08:35:51;2.80;;;1.93;;
7761;SDS011;3925;48.636;9.516;2022-07-10T08:38:25;1.67;;;1.40;;
7761;SDS011;3925;48.636;9.516;2022-07-10T08:40:52;1.67;;;1.50;;
7761;SDS011;3925;48.636;9.516;2022-07-10T08:43:22;1.80;;;1.70;;
7761;SDS011;3925;48.636;9.516;2022-07-10T08:45:49;2.37;;;2.00;;
7761;SDS011;3925;48.636;9.516;2022-07-10T08:48:21;1.77;;;1.20;;
7761;SDS011;3925;48.636;9.516;2022-07-10T08:50:51;1.90;;;1.63;;
7761;SDS011;3925;48.636;9.516;2022-07-10T08:53:22;1.20;;;1.10;;
7761;SDS011;3925;48.636;9.516;2022-07-10T08:55:55;3.60;;;1.43;;
7761;SDS011;3925;48.636;9.516;2022-07-10T08:58:22;1.83;;;1.63;;
7761;SDS011;3925;48.636;9.516;2022-07-10T09:00:49;1.73;;;1.47;;
7761;SDS011;3925;48.636;9.516;2022-07-10T09:03:16;4.20;;;2.10;;
7761;SDS011;3925;48.636;9.516;2022-07-10T09:05:43;2.33;;;1.80;;
7761;SDS011;3925;48.636;9.516;2022-07-10T09:08:24;2.23;;;1.73;;
7761;SDS011;3925;48.636;9.516;2022-07-10T09:10:53;2.30;;;1.53;;
7761;SDS011;3925;48.636;9.516;2022-07-10T09:13:48;1.63;;;1.33;;
7761;SDS011;3925;48.636;9.516;2022-07-10T09:16:20;2.70;;;1.57;;
7761;SDS011;3925;48.636;9.516;2022-07-10T09:18:48;3.37;;;1.83;;
7761;SDS011;3925;48.636;9.516;2022-07-10T09:21:15;1.50;;;1.40;;
7761;SDS011;3925;48.636;9.516;2022-07-10T09:23:44;1.47;;;1.37;;
7761;SDS011;3925;48.636;9.516;2022-07-10T09:26:11;3.63;;;1.70;;
7761;SDS011;3925;48.636;9.516;2022-07-10T09:28:38;2.70;;;1.10;;
7761;SDS011;3925;48.636;9.516;2022-07-10T09:31:05;2.90;;;1.50;;
7761;SDS011;3925;48.636;9.516;2022-07-10T09:33:32;2.27;;;1.47;;
7761;SDS011;3925;48.636;9.516;2022-07-10T09:36:03;1.80;;;1.33;;
7761;SDS011;3925;48.636;9.516;2022-07-10T09:38:49;1.93;;;1.20;;
7761;SDS011;3925;48.636;9.516;2022-07-10T09:41:21;1.90;;;1.37;;
7761;SDS011;3925;48.636;9.516;2022-07-10T09:43:50;2.30;;;1.30;;
7761;SDS011;3925;48.636;9.516;2022-07-10T09:46:18;2.00;;;1.40;;
7761;SDS011;3925;48.636;9.516;2022-07-10T09:48:46;2.40;;;1.27;;
7761;SDS011;3925;48.636;9.516;2022-07-10T09:51:13;2.10;;;1.10;;
7761;SDS011;3925;48.636;9.516;2022-07-10T09:53:41;2.00;;;1.30;;
7761;SDS011;3925;48.636;9.516;2022-07-10T09:56:11;1.83;;;1.33;;
7761;SDS011;3925;48.636;9.516;2022-07-10T09:58:39;1.53;;;1.43;;
7761;SDS011;3925;48.636;9.516;2022-07-10T10:01:07;4.07;;;1.60;;
7761;SDS011;3925;48.636;9.516;2022-07-10T10:03:35;3.60;;;1.37;;
7761;SDS011;3925;48.636;9.516;2022-07-10T10:06:06;3.40;;;1.10;;
7761;SDS011;3925;48.636;9.516;2022-07-10T10:08:43;1.93;;;0.80;;
7761;SDS011;3925;48.636;9.516;2022-07-10T10:11:19;1.50;;;1.10;;
7761;SDS011;3925;48.636;9.516;2022-07-10T10:13:47;2.40;;;1.30;;
7761;SDS011;3925;48.636;9.516;2022-07-10T10:16:16;1.53;;;1.43;;
7761;SDS011;3925;48.636;9.516;2022-07-10T10:18:45;2.50;;;1.40;;
7761;SDS011;3925;48.636;9.516;2022-07-10T10:21:30;3.50;;;1.20;;
7761;SDS011;3925;48.636;9.516;2022-07-10T10:23:58;1.43;;;1.33;;
7761;SDS011;3925;48.636;9.516;2022-07-10T10:26:28;2.93;;;1.50;;
7761;SDS011;3925;48.636;9.516;2022-07-10T10:28:56;2.53;;;1.47;;
7761;SDS011;3925;48.636;9.516;2022-07-10T10:31:25;1.63;;;1.10;;
7761;SDS011;3925;48.636;9.516;2022-07-10T10:33:54;3.30;;;1.30;;
7761;SDS011;3925;48.636;9.516;2022-07-10T10:39:11;1.50;;;0.97;;
7761;SDS011;3925;48.636;9.516;2022-07-10T10:41:41;1.63;;;1.37;;
7761;SDS011;3925;48.636;9.516;2022-07-10T10:44:22;1.63;;;0.97;;
7761;SDS011;3925;48.636;9.516;2022-07-10T10:47:03;3.53;;;1.60;;
7761;SDS011;3925;48.636;9.516;2022-07-10T10:49:51;1.30;;;1.20;;
7761;SDS011;3925;48.636;9.516;2022-07-10T10:52:19;3.90;;;1.30;;
7761;SDS011;3925;48.636;9.516;2022-07-10T10:54:59;2.63;;;1.50;;
7761;SDS011;3925;48.636;9.516;2022-07-10T10:57:38;1.63;;;1.30;;
7761;SDS011;3925;48.636;9.516;2022-07-10T11:00:11;4.37;;;1.60;;
7761;SDS011;3925;48.636;9.516;2022-07-10T11:02:40;3.00;;;1.50;;
7761;SDS011;3925;48.636;9.516;2022-07-10T11:08:08;2.80;;;1.40;;
7761;SDS011;3925;48.636;9.516;2022-07-10T11:10:35;4.00;;;1.40;;
7761;SDS011;3925;48.636;9.516;2022-07-10T11:13:06;2.03;;;1.20;;
7761;SDS011;3925;48.636;9.516;2022-07-10T11:15:34;2.30;;;1.60;;
7761;SDS011;3925;48.636;9.516;2022-07-10T11:18:06;1.43;;;1.33;;
7761;SDS011;3925;48.636;9.516;2022-07-10T11:20:34;2.23;;;1.30;;
7761;SDS011;3925;48.636;9.516;2022-07-10T11:25:54;2.83;;;1.80;;
7761;SDS011;3925;48.636;9.516;2022-07-10T11:28:36;3.90;;;1.60;;
7761;SDS011;3925;48.636;9.516;2022-07-10T11:31:11;2.00;;;1.53;;
7761;SDS011;3925;48.636;9.516;2022-07-10T11:33:38;1.80;;;1.33;;
7761;SDS011;3925;48.636;9.516;2022-07-10T11:36:10;1.93;;;1.40;;
7761;SDS011;3925;48.636;9.516;2022-07-10T11:38:38;4.67;;;2.73;;
7761;SDS011;3925;48.636;9.516;2022-07-10T11:41:11;2.63;;;2.10;;
7761;SDS011;3925;48.636;9.516;2022-07-10T11:43:47;1.30;;;0.93;;
7761;SDS011;3925;48.636;9.516;2022-07-10T11:46:15;1.53;;;1.23;;
7761;SDS011;3925;48.636;9.516;2022-07-10T11:48:42;4.63;;;1.13;;
7761;SDS011;3925;48.636;9.516;2022-07-10T11:51:15;1.57;;;1.30;;
7761;SDS011;3925;48.636;9.516;2022-07-10T11:53:52;2.37;;;1.10;;
7761;SDS011;3925;48.636;9.516;2022-07-10T11:56:22;2.17;;;1.23;;
7761;SDS011;3925;48.636;9.516;2022-07-10T11:58:59;4.17;;;1.40;;
7761;SDS011;3925;48.636;9.516;2022-07-10T12:01:27;1.77;;;1.57;;
7761;SDS011;3925;48.636;9.516;2022-07-10T12:03:58;1.43;;;1.33;;
7761;SDS011;3925;48.636;9.516;2022-07-10T12:06:27;1.30;;;1.13;;
7761;SDS011;3925;48.636;9.516;2022-07-10T12:08:55;2.73;;;1.40;;
7761;SDS011;3925;48.636;9.516;2022-07-10T12:11:22;1.63;;;1.10;;
7761;SDS011;3925;48.636;9.516;2022-07-10T12:13:51;2.30;;;1.07;;
7761;SDS011;3925;48.636;9.516;2022-07-10T12:16:20;1.43;;;1.20;;
7761;SDS011;3925;48.636;9.516;2022-07-10T12:18:48;2.20;;;1.20;;
7761;SDS011;3925;48.636;9.516;2022-07-10T12:21:15;1.23;;;1.10;;
7761;SDS011;3925;48.636;9.516;2022-07-10T12:23:45;4.10;;;1.10;;
7761;SDS011;3925;48.636;9.516;2022-07-10T12:26:13;2.13;;;1.00;;
7761;SDS011;3925;48.636;9.516;2022-07-10T12:28:48;2.53;;;1.50;;
7761;SDS011;3925;48.636;9.516;2022-07-10T12:31:22;3.40;;;1.00;;
7761;SDS011;3925;48.636;9.516;2022-07-10T12:33:50;2.33;;;1.20;;
7761;SDS011;3925;48.636;9.516;2022-07-10T12:36:19;2.07;;;1.20;;
7761;SDS011;3925;48.636;9.516;2022-07-10T12:38:52;3.53;;;1.30;;
7761;SDS011;3925;48.636;9.516;2022-07-10T12:41:22;3.70;;;1.37;;
7761;SDS011;3925;48.636;9.516;2022-07-10T12:43:50;1.20;;;1.10;;
7761;SDS011;3925;48.636;9.516;2022-07-10T12:46:18;2.67;;;1.10;;
7761;SDS011;3925;48.636;9.516;2022-07-10T12:49:04;1.70;;;1.17;;
7761;SDS011;3925;48.636;9.516;2022-07-10T12:51:32;2.73;;;1.27;;
7761;SDS011;3925;48.636;9.516;2022-07-10T12:54:00;2.20;;;1.70;;
7761;SDS011;3925;48.636;9.516;2022-07-10T12:56:34;2.40;;;1.30;;
7761;SDS011;3925;48.636;9.516;2022-07-10T12:59:03;2.03;;;0.97;;
7761;SDS011;3925;48.636;9.516;2022-07-10T13:01:39;0.90;;;0.90;;
7761;SDS011;3925;48.636;9.516;2022-07-10T13:04:09;1.57;;;0.90;;
7761;SDS011;3925;48.636;9.516;2022-07-10T13:06:37;1.40;;;1.17;;
7761;SDS011;3925;48.636;9.516;2022-07-10T13:09:18;2.90;;;0.97;;
7761;SDS011;3925;48.636;9.516;2022-07-10T13:11:46;1.53;;;0.90;;
7761;SDS011;3925;48.636;9.516;2022-07-10T13:14:14;1.40;;;1.30;;
7761;SDS011;3925;48.636;9.516;2022-07-10T13:16:41;2.07;;;1.00;;
7761;SDS011;3925;48.636;9.516;2022-07-10T13:19:09;2.17;;;1.30;;
7761;SDS011;3925;48.636;9.516;2022-07-10T13:21:37;3.10;;;1.20;;
7761;SDS011;3925;48.636;9.516;2022-07-10T13:24:04;2.20;;;1.60;;
7761;SDS011;3925;48.636;9.516;2022-07-10T13:26:32;3.13;;;1.43;;
7761;SDS011;3925;48.636;9.516;2022-07-10T13:28:59;1.57;;;1.10;;
7761;SDS011;3925;48.636;9.516;2022-07-10T13:31:26;2.57;;;1.20;;
7761;SDS011;3925;48.636;9.516;2022-07-10T13:33:53;1.47;;;1.10;;
7761;SDS011;3925;48.636;9.516;2022-07-10T13:36:22;2.20;;;1.40;;
7761;SDS011;3925;48.636;9.516;2022-07-10T13:38:49;1.50;;;1.40;;
7761;SDS011;3925;48.636;9.516;2022-07-10T13:41:17;1.23;;;0.93;;
7761;SDS011;3925;48.636;9.516;2022-07-10T13:43:44;0.90;;;0.80;;
7761;SDS011;3925;48.636;9.516;2022-07-10T13:46:11;5.57;;;1.90;;
7761;SDS011;3925;48.636;9.516;2022-07-10T13:48:38;2.20;;;1.40;;
7761;SDS011;3925;48.636;9.516;2022-07-10T13:51:05;3.53;;;0.90;;
7761;SDS011;3925;48.636;9.516;2022-07-10T13:53:34;1.10;;;1.00;;
7761;SDS011;3925;48.636;9.516;2022-07-10T13:56:01;1.43;;;1.10;;
7761;SDS011;3925;48.636;9.516;2022-07-10T13:58:30;1.53;;;1.20;;
7761;SDS011;3925;48.636;9.516;2022-07-10T14:00:57;2.03;;;1.33;;
7761;SDS011;3925;48.636;9.516;2022-07-10T14:03:25;1.63;;;1.10;;
7761;SDS011;3925;48.636;9.516;2022-07-10T14:05:52;1.80;;;1.10;;
7761;SDS011;3925;48.636;9.516;2022-07-10T14:08:19;3.83;;;1.43;;
7761;SDS011;3925;48.636;9.516;2022-07-10T14:10:47;2.20;;;1.00;;
7761;SDS011;3925;48.636;9.516;2022-07-10T14:13:14;1.20;;;1.00;;
7761;SDS011;3925;48.636;9.516;2022-07-10T14:15:42;1.10;;;0.93;;
7761;SDS011;3925;48.636;9.516;2022-07-10T14:18:10;1.17;;;0.90;;
7761;SDS011;3925;48.636;9.516;2022-07-10T14:20:38;0.90;;;0.73;;
7761;SDS011;3925;48.636;9.516;2022-07-10T14:23:22;1.53;;;1.10;;
7761;SDS011;3925;48.636;9.516;2022-07-10T14:25:50;1.70;;;1.23;;
7761;SDS011;3925;48.636;9.516;2022-07-10T14:28:19;1.13;;;0.97;;
7761;SDS011;3925;48.636;9.516;2022-07-10T14:30:48;2.03;;;1.00;;
7761;SDS011;3925;48.636;9.516;2022-07-10T14:33:15;0.80;;;0.80;;
7761;SDS011;3925;48.636;9.516;2022-07-10T14:35:43;2.93;;;1.00;;
7761;SDS011;3925;48.636;9.516;2022-07-10T14:38:10;1.83;;;1.00;;
7761;SDS011;3925;48.636;9.516;2022-07-10T14:40:37;2.03;;;1.13;;
7761;SDS011;3925;48.636;9.516;2022-07-10T14:43:05;1.60;;;1.07;;
7761;SDS011;3925;48.636;9.516;2022-07-10T14:45:32;1.87;;;1.00;;
7761;SDS011;3925;48.636;9.516;2022-07-10T14:47:59;0.80;;;0.80;;
7761;SDS011;3925;48.636;9.516;2022-07-10T14:50:26;1.13;;;0.97;;
7761;SDS011;3925;48.636;9.516;2022-07-10T14:52:54;0.63;;;0.60;;
7761;SDS011;3925;48.636;9.516;2022-07-10T14:55:21;1.10;;;0.73;;
7761;SDS011;3925;48.636;9.516;2022-07-10T14:57:48;1.87;;;0.83;;
7761;SDS011;3925;48.636;9.516;2022-07-10T15:00:17;2.40;;;0.97;;
7761;SDS011;3925;48.636;9.516;2022-07-10T15:02:44;1.50;;;0.90;;
7761;SDS011;3925;48.636;9.516;2022-07-10T15:05:11;2.07;;;0.93;;
7761;SDS011;3925;48.636;9.516;2022-07-10T15:07:39;1.00;;;0.60;;
7761;SDS011;3925;48.636;9.516;2022-07-10T15:10:06;3.50;;;1.30;;
7761;SDS011;3925;48.636;9.516;2022-07-10T15:12:34;2.77;;;1.50;;
7761;SDS011;3925;48.636;9.516;2022-07-10T15:15:03;1.00;;;0.70;;
7761;SDS011;3925;48.636;9.516;2022-07-10T15:17:34;1.00;;;0.80;;
7761;SDS011;3925;48.636;9.516;2022-07-10T15:20:01;1.13;;;0.73;;
7761;SDS011;3925;48.636;9.516;2022-07-10T15:22:29;1.20;;;0.80;;
7761;SDS011;3925;48.636;9.516;2022-07-10T15:24:56;2.80;;;0.80;;
7761;SDS011;3925;48.636;9.516;2022-07-10T15:27:23;1.17;;;0.90;;
7761;SDS011;3925;48.636;9.516;2022-07-10T15:29:51;1.13;;;0.70;;
7761;SDS011;3925;48.636;9.516;2022-07-10T15:32:19;1.23;;;0.70;;